Time;durP1;ratioP1;P1;durP2;ratioP2;P2;SDS_P1;SDS_P2;PMS_P1;PMS_P2;Temp;Humidity;BMP_temperature;BMP_pressure;BME280_temperature;BME280_humidity;BME280_pressure;Samples;Min_cycle;Max_cycle;Signal;HPM_P1;HPM_P2
2021/07/21 00:00:24;;;;;;;14.50;8.65;;;;;;;18.59;61.17;102129.41;5071696;28;20037;-54
2021/07/21 00:02:52;;;;;;;17.88;9.18;;;;;;;18.56;61.13;102136.34;5071399;28;20102;-54
2021/07/21 00:05:20;;;;;;;13.88;8.73;;;;;;;18.52;61.36;102141.63;5071362;28;20041;-55
2021/07/21 00:07:48;;;;;;;16.10;8.20;;;;;;;18.50;61.52;102135.56;5072456;28;20032;-56
2021/07/21 00:10:20;;;;;;;14.80;8.52;;;;;;;18.50;61.44;102134.75;5057488;28;20075;-56
2021/07/21 00:15:38;;;;;;;13.95;8.55;;;;;;;18.30;62.41;102127.44;5057102;28;20070;-53
2021/07/21 00:20:53;;;;;;;14.38;8.43;;;;;;;18.13;63.19;102119.59;5075014;28;20127;-55
2021/07/21 00:23:21;;;;;;;12.75;8.30;;;;;;;18.08;63.32;102114.09;5075311;28;20427;-56
2021/07/21 00:25:50;;;;;;;14.60;8.88;;;;;;;18.10;63.24;102114.66;5074422;28;20051;-55
2021/07/21 00:28:19;;;;;;;13.10;8.35;;;;;;;18.13;62.63;102119.59;5056991;28;20495;-52
2021/07/21 00:30:47;;;;;;;13.80;8.43;;;;;;;18.18;62.55;102127.81;5074864;28;20803;-55
2021/07/21 00:33:16;;;;;;;15.48;8.68;;;;;;;18.25;62.25;102127.50;5073420;28;20403;-56
2021/07/21 00:35:44;;;;;;;13.43;8.63;;;;;;;18.33;61.65;102124.13;5074636;28;20064;-56
2021/07/21 00:38:12;;;;;;;14.73;8.40;;;;;;;18.37;61.17;102122.44;5046486;28;20041;-55
2021/07/21 00:40:41;;;;;;;14.35;9.20;;;;;;;18.36;60.73;102119.97;5057112;28;20537;-56
2021/07/21 00:43:09;;;;;;;12.32;7.78;;;;;;;18.33;60.93;102115.00;5057074;28;20128;-56
2021/07/21 00:45:37;;;;;;;12.68;7.97;;;;;;;18.31;60.79;102110.63;5056579;28;20040;-54
2021/07/21 00:48:05;;;;;;;17.73;8.63;;;;;;;18.31;60.57;102115.31;5074425;28;20063;-55
2021/07/21 00:50:33;;;;;;;14.70;8.63;;;;;;;18.25;60.83;102119.22;5056122;28;20079;-55
2021/07/21 00:53:00;;;;;;;13.77;8.82;;;;;;;18.24;60.98;102115.66;5074566;28;20389;-56
2021/07/21 00:55:29;;;;;;;13.27;9.02;;;;;;;18.22;60.81;102115.09;5074503;28;20047;-55
2021/07/21 00:57:58;;;;;;;13.82;8.68;;;;;;;18.23;60.95;102116.78;5056830;28;20048;-55
2021/07/21 01:00:28;;;;;;;14.13;7.95;;;;;;;18.27;60.81;102119.75;5056617;28;20048;-54
2021/07/21 01:02:57;;;;;;;13.38;8.23;;;;;;;18.30;60.42;102119.19;5074161;28;20055;-55
2021/07/21 01:05:31;;;;;;;15.20;9.18;;;;;;;18.26;60.39;102124.47;5055670;28;20475;-55
2021/07/21 01:08:08;;;;;;;12.10;8.25;;;;;;;18.22;60.67;102117.88;5074590;28;20044;-56
2021/07/21 01:11:07;;;;;;;14.10;9.40;;;;;;;18.20;60.76;102113.75;5053151;28;20040;-56
2021/07/21 01:13:49;;;;;;;13.20;8.75;;;;;;;18.10;61.22;102120.16;5031927;28;20043;-56
2021/07/21 01:16:22;;;;;;;15.23;9.52;;;;;;;18.03;61.75;102119.66;5039636;28;20090;-53
2021/07/21 01:19:03;;;;;;;11.98;8.75;;;;;;;18.00;61.58;102125.75;5039537;28;20041;-56
2021/07/21 01:21:50;;;;;;;14.18;9.15;;;;;;;18.00;61.85;102126.59;5055927;28;20542;-56
2021/07/21 01:24:52;;;;;;;16.13;9.82;;;;;;;18.07;61.72;102126.25;5056294;28;20052;-54
2021/07/21 01:27:43;;;;;;;16.10;9.93;;;;;;;18.09;61.06;102124.88;5056207;28;20049;-55
2021/07/21 01:30:15;;;;;;;13.70;8.98;;;;;;;18.08;61.17;102122.38;5036488;28;20091;-55
2021/07/21 01:33:06;;;;;;;13.00;8.48;;;;;;;18.04;61.32;102133.19;5055571;28;20044;-55
2021/07/21 01:35:42;;;;;;;14.70;8.63;;;;;;;18.00;61.48;102126.59;5056116;28;20543;-55
2021/07/21 01:38:18;;;;;;;13.75;8.93;;;;;;;17.95;61.56;102123.03;5056046;28;20545;-55
2021/07/21 01:40:52;;;;;;;14.65;9.63;;;;;;;17.83;61.81;102121.44;5056487;28;20127;-56
2021/07/21 01:43:26;;;;;;;15.45;9.63;;;;;;;17.76;62.34;102117.34;5036113;28;20041;-56
2021/07/21 01:45:54;;;;;;;12.90;8.90;;;;;;;17.76;62.57;102118.16;5064753;28;20499;-55
2021/07/21 01:48:24;;;;;;;13.43;8.63;;;;;;;17.76;62.37;102114.59;5039087;28;20052;-55
2021/07/21 01:50:56;;;;;;;13.45;9.60;;;;;;;17.74;62.62;102127.81;5039431;28;20044;-54
2021/07/21 01:53:27;;;;;;;14.40;9.48;;;;;;;17.72;62.50;102130.03;5039022;28;20044;-53
2021/07/21 01:55:58;;;;;;;17.00;9.27;;;;;;;17.73;62.51;102127.00;5039707;28;20048;-57
2021/07/21 01:58:30;;;;;;;16.35;9.13;;;;;;;17.73;62.38;102126.19;5055661;28;20099;-56
2021/07/21 02:01:11;;;;;;;13.45;9.18;;;;;;;17.69;62.35;102125.91;5054528;28;20594;-55
2021/07/21 02:03:40;;;;;;;13.48;8.18;;;;;;;17.66;62.89;102126.50;5055558;28;20442;-56
2021/07/21 02:06:13;;;;;;;12.73;7.90;;;;;;;17.66;62.87;102124.56;5055189;28;20495;-54
2021/07/21 02:08:44;;;;;;;14.05;8.88;;;;;;;17.66;62.90;102124.56;5021813;28;20048;-56
2021/07/21 02:11:20;;;;;;;;;;;;;;;17.65;62.63;102135.84;5073686;28;20080;-56
2021/07/21 02:13:49;;;;;;;14.95;9.77;;;;;;;17.61;62.65;102137.53;5072975;28;20022;-52
2021/07/21 02:16:25;;;;;;;16.10;9.02;;;;;;;17.56;62.97;102138.41;5046449;28;20041;-53
2021/07/21 02:18:57;;;;;;;14.77;9.65;;;;;;;17.51;63.00;102138.41;5055068;28;20072;-55
2021/07/21 02:21:38;;;;;;;15.70;9.40;;;;;;;17.44;63.37;102133.22;5036439;28;20052;-57
2021/07/21 02:24:07;;;;;;;12.57;8.15;;;;;;;17.36;62.71;102138.47;5054933;28;20037;-56
2021/07/21 02:27:10;;;;;;;14.57;8.73;;;;;;;17.26;62.98;102150.34;5053095;28;20051;-57
2021/07/21 02:29:39;;;;;;;15.93;8.65;;;;;;;17.21;63.00;102145.69;5038488;28;20418;-56
2021/07/21 02:32:13;;;;;;;11.85;8.18;;;;;;;17.20;63.75;102141.28;5054474;28;20041;-51
2021/07/21 02:34:43;;;;;;;19.07;8.67;;;;;;;17.27;62.90;102140.16;5054635;28;20533;-56
2021/07/21 02:37:19;;;;;;;15.68;8.38;;;;;;;17.23;63.00;102139.91;5055092;28;20037;-56
2021/07/21 02:39:48;;;;;;;11.57;7.77;;;;;;;17.21;63.09;102142.94;5058280;28;20509;-54
2021/07/21 02:42:17;;;;;;;11.65;7.60;;;;;;;17.27;62.92;102141.00;5054907;28;20302;-55
2021/07/21 02:44:48;;;;;;;14.32;8.15;;;;;;;17.33;62.59;102144.56;5054103;28;20049;-52
2021/07/21 02:47:18;;;;;;;16.98;9.20;;;;;;;17.33;62.59;102139.03;5054764;28;20058;-57
2021/07/21 02:49:51;;;;;;;13.98;8.57;;;;;;;17.29;63.04;102137.94;5054618;28;20076;-56
2021/07/21 02:52:25;;;;;;;13.60;7.95;;;;;;;17.32;62.82;102142.88;5054912;28;20090;-54
2021/07/21 02:55:04;;;;;;;13.73;8.77;;;;;;;17.35;62.90;102151.44;5037294;28;20068;-56
2021/07/21 02:57:42;;;;;;;13.90;8.13;;;;;;;17.37;62.40;102149.22;5060725;28;20445;-57
2021/07/21 03:00:13;;;;;;;14.88;8.48;;;;;;;17.38;62.43;102147.28;5070660;28;20098;-51
2021/07/21 03:02:50;;;;;;;16.20;8.95;;;;;;;17.37;62.55;102145.66;5053960;28;20047;-51
2021/07/21 03:05:23;;;;;;;12.88;8.23;;;;;;;17.32;63.27;102143.72;5054446;28;20048;-53
2021/07/21 03:08:00;;;;;;;11.98;7.63;;;;;;;17.27;63.48;102141.00;5056185;28;20096;-55
2021/07/21 03:10:29;;;;;;;13.20;8.50;;;;;;;17.29;63.36;102144.28;5072285;28;20040;-56
2021/07/21 03:13:16;;;;;;;13.32;8.18;;;;;;;17.30;63.59;102148.69;5056350;28;20040;-55
2021/07/21 03:15:49;;;;;;;12.85;8.25;;;;;;;17.27;63.54;102141.00;5054439;28;20056;-56
2021/07/21 03:18:25;;;;;;;12.48;7.95;;;;;;;17.21;64.03;102147.63;5054615;28;20151;-55
2021/07/21 03:20:57;;;;;;;15.10;8.57;;;;;;;17.17;63.95;102152.88;5054350;28;20086;-55
2021/07/21 03:23:28;;;;;;;12.93;8.05;;;;;;;17.16;64.38;102153.97;5047376;28;20158;-56
2021/07/21 03:26:25;;;;;;;12.73;7.88;;;;;;;17.18;64.31;102157.28;5041606;28;20131;-56
2021/07/21 03:28:54;;;;;;;12.68;8.35;;;;;;;17.19;63.83;102156.16;5071646;28;20051;-52
2021/07/21 03:31:24;;;;;;;12.90;8.00;;;;;;;17.22;63.88;102154.75;5054230;28;20098;-55
2021/07/21 03:34:04;;;;;;;14.20;8.35;;;;;;;17.18;64.05;102153.69;5054065;28;20398;-56
2021/07/21 03:36:42;;;;;;;14.00;8.02;;;;;;;17.15;64.34;102165.25;5035302;28;20042;-56
2021/07/21 03:39:28;;;;;;;10.98;6.80;;;;;;;17.15;64.52;102162.50;5055572;28;20044;-52
2021/07/21 03:42:29;;;;;;;14.02;8.48;;;;;;;17.15;64.41;102162.50;4982283;28;20046;-51
2021/07/21 03:45:05;;;;;;;15.23;8.38;;;;;;;17.14;64.63;102163.63;4961802;28;20135;-56
2021/07/21 03:47:34;;;;;;;16.10;9.02;;;;;;;17.15;64.78;102154.22;4978071;28;20058;-56
2021/07/21 03:50:05;;;;;;;17.38;9.57;;;;;;;17.14;64.87;102152.59;4978037;28;20214;-53
2021/07/21 03:52:40;;;;;;;16.73;9.38;;;;;;;17.09;64.68;102149.88;4978015;28;20051;-56
2021/07/21 03:55:11;;;;;;;15.82;8.48;;;;;;;17.02;65.08;102150.97;4945933;28;20046;-55
2021/07/21 03:57:59;;;;;;;22.25;9.73;;;;;;;16.95;65.16;102155.94;4993371;28;20050;-55
2021/07/21 04:00:55;;;;;;;13.13;7.82;;;;;;;16.93;65.67;102157.31;4980388;28;20061;-55
2021/07/21 04:03:31;;;;;;;16.45;9.07;;;;;;;16.92;65.73;102153.75;4962717;28;20062;-53
2021/07/21 04:06:03;;;;;;;14.20;8.77;;;;;;;16.91;65.98;102157.63;4978303;28;20193;-52
2021/07/21 04:08:51;;;;;;;12.15;8.27;;;;;;;16.90;66.12;102158.69;4980318;28;20445;-55
2021/07/21 04:11:28;;;;;;;13.77;8.98;;;;;;;16.87;66.28;102156.50;4978500;28;20517;-56
2021/07/21 04:13:59;;;;;;;13.18;8.57;;;;;;;16.89;65.98;102165.31;4977160;28;20475;-55
2021/07/21 04:16:48;;;;;;;13.27;8.70;;;;;;;16.94;65.96;102159.81;4964197;28;20074;-54
2021/07/21 04:19:18;;;;;;;13.65;8.52;;;;;;;16.95;65.48;102164.19;5054441;28;20072;-54
2021/07/21 04:21:49;;;;;;;13.77;8.65;;;;;;;16.92;65.66;102162.00;5075152;28;20048;-55
2021/07/21 04:24:18;;;;;;;15.55;9.32;;;;;;;16.88;65.90;102166.41;5074987;28;20049;-56
2021/07/21 04:26:48;;;;;;;16.23;9.27;;;;;;;16.83;66.61;102158.97;5074505;28;20071;-56
2021/07/21 04:29:21;;;;;;;16.58;9.70;;;;;;;16.76;66.99;102163.09;5057227;28;20068;-57
2021/07/21 04:31:50;;;;;;;16.45;9.85;;;;;;;16.70;67.31;102158.72;5057492;28;20070;-53
2021/07/21 04:34:19;;;;;;;15.43;8.65;;;;;;;16.73;67.16;102160.91;5074757;28;20047;-56
2021/07/21 04:36:51;;;;;;;17.25;9.00;;;;;;;16.80;67.27;102170.56;5041188;28;20048;-57
2021/07/21 04:39:24;;;;;;;14.68;8.93;;;;;;;16.88;66.81;102168.34;5040887;28;20032;-54
2021/07/21 04:42:12;;;;;;;15.00;9.70;;;;;;;16.93;66.88;102168.34;5059396;28;20040;-54
2021/07/21 04:44:42;;;;;;;14.85;8.35;;;;;;;16.98;66.63;102177.44;5056577;28;20041;-54
2021/07/21 04:47:12;;;;;;;19.73;9.80;;;;;;;17.03;66.46;102176.59;5074828;28;20083;-56
2021/07/21 04:49:43;;;;;;;16.23;10.18;;;;;;;17.04;66.83;102181.81;5074444;28;20041;-56
2021/07/21 04:52:18;;;;;;;15.95;9.60;;;;;;;17.07;66.64;102185.09;5074440;28;20597;-54
2021/07/21 04:54:47;;;;;;;19.35;9.98;;;;;;;17.08;66.68;102189.50;5056197;28;20044;-57
2021/07/21 04:57:18;;;;;;;24.13;10.32;;;;;;;17.09;66.67;102191.16;5056432;28;20045;-56
2021/07/21 05:00:05;;;;;;;27.58;10.88;;;;;;;17.11;66.97;102199.97;5056478;28;20102;-52
2021/07/21 05:02:51;;;;;;;23.27;11.10;;;;;;;17.14;66.71;102191.97;5074298;28;20048;-57
2021/07/21 05:05:19;;;;;;;19.52;9.88;;;;;;;17.20;66.53;102190.06;5056723;28;20736;-56
2021/07/21 05:07:55;;;;;;;28.77;9.85;;;;;;;17.25;66.26;102187.28;5041399;28;20472;-56
2021/07/21 05:10:23;;;;;;;20.95;9.63;;;;;;;17.31;66.12;102201.84;5056158;28;20456;-56
2021/07/21 05:12:51;;;;;;;16.98;8.80;;;;;;;17.36;65.95;102207.34;5056327;28;20087;-54
2021/07/21 05:15:24;;;;;;;20.17;9.18;;;;;;;17.39;65.28;102204.03;5056096;28;20052;-56
2021/07/21 05:18:08;;;;;;;19.33;9.73;;;;;;;17.40;65.37;102206.50;5056497;28;20102;-53
2021/07/21 05:20:50;;;;;;;19.35;10.57;;;;;;;17.42;65.34;102215.31;5056258;28;20057;-55
2021/07/21 05:23:20;;;;;;;21.13;9.90;;;;;;;17.43;65.35;102216.16;5056755;28;20399;-53
2021/07/21 05:26:14;;;;;;;19.60;9.90;;;;;;;17.44;65.23;102213.13;5070259;28;20388;-56
2021/07/21 05:29:02;;;;;;;16.58;7.88;;;;;;;17.45;64.88;102217.50;5074328;28;20047;-56
2021/07/21 05:31:50;;;;;;;17.40;9.02;;;;;;;17.51;64.98;102223.00;5073152;28;20071;-52
2021/07/21 05:34:45;;;;;;;15.65;8.30;;;;;;;17.53;64.44;102220.78;5073620;28;20059;-55
2021/07/21 05:37:29;;;;;;;20.35;11.23;;;;;;;17.54;64.28;102222.47;5073364;28;20045;-55
2021/07/21 05:40:02;;;;;;;18.45;9.43;;;;;;;17.54;64.12;102222.47;5055350;28;20399;-54
2021/07/21 05:42:56;;;;;;;16.63;8.57;;;;;;;17.56;64.07;102229.34;5073150;28;20037;-54
2021/07/21 05:45:27;;;;;;;15.88;10.10;;;;;;;17.59;64.20;102225.19;5055657;28;20094;-56
2021/07/21 05:47:58;;;;;;;16.55;11.00;;;;;;;17.63;64.03;102223.50;5073265;28;20127;-50
2021/07/21 05:50:28;;;;;;;15.88;10.40;;;;;;;17.64;63.24;102227.94;5055584;28;20110;-51
2021/07/21 05:52:58;;;;;;;16.95;10.32;;;;;;;17.65;62.95;102232.31;5055288;28;20040;-52
2021/07/21 05:55:44;;;;;;;18.02;10.15;;;;;;;17.66;63.25;102239.50;5055677;28;20055;-52
2021/07/21 05:58:15;;;;;;;20.45;10.50;;;;;;;17.65;63.24;102230.41;5055301;28;20090;-52
2021/07/21 06:00:45;;;;;;;15.07;9.63;;;;;;;17.68;63.23;102227.09;5073232;28;20044;-54
2021/07/21 06:03:22;;;;;;;12.60;8.20;;;;;;;17.72;63.41;102224.56;5055515;28;20044;-56
2021/07/21 06:06:08;;;;;;;19.20;9.82;;;;;;;17.76;63.30;102233.94;5072499;28;20056;-55
2021/07/21 06:08:56;;;;;;;15.65;8.98;;;;;;;17.84;63.55;102227.03;5071215;28;20418;-54
2021/07/21 06:11:25;;;;;;;14.10;8.00;;;;;;;17.87;63.39;102224.56;5054690;28;20032;-51
2021/07/21 06:13:57;;;;;;;12.70;7.63;;;;;;;17.93;63.49;102235.56;5055093;28;20123;-56
2021/07/21 06:16:25;;;;;;;15.95;9.80;;;;;;;17.93;63.37;102230.88;5072445;28;20048;-52
2021/07/21 06:18:53;;;;;;;18.92;9.63;;;;;;;17.96;63.47;102232.22;5061611;28;20078;-53
2021/07/21 06:21:21;;;;;;;15.25;8.77;;;;;;;17.97;63.37;102233.91;5072521;28;20056;-55
2021/07/21 06:24:15;;;;;;;15.32;8.75;;;;;;;17.98;63.65;102244.63;5041481;28;20098;-57
2021/07/21 06:26:44;;;;;;;36.38;23.08;;;;;;;18.00;63.44;102236.09;5054690;28;20040;-56
2021/07/21 06:29:29;;;;;;;19.02;11.70;;;;;;;18.00;63.32;102236.09;5053965;28;20483;-56
2021/07/21 06:31:59;;;;;;;19.25;10.60;;;;;;;18.02;63.14;102247.66;5072389;28;20060;-57
2021/07/21 06:34:28;;;;;;;19.17;10.52;;;;;;;18.03;62.87;102241.84;5037649;28;20053;-55
2021/07/21 06:37:00;;;;;;;17.75;9.90;;;;;;;18.05;61.97;102249.84;5053922;28;20049;-55
2021/07/21 06:39:29;;;;;;;15.00;9.63;;;;;;;18.07;61.38;102247.63;5054128;28;20123;-56
2021/07/21 06:41:58;;;;;;;17.98;9.40;;;;;;;18.08;61.02;102252.03;5072617;28;20126;-57
2021/07/21 06:44:25;;;;;;;15.55;8.40;;;;;;;18.10;61.05;102253.38;5054389;28;20079;-55
2021/07/21 06:47:13;;;;;;;19.50;8.75;;;;;;;18.14;60.71;102259.19;5071944;28;20566;-57
2021/07/21 06:49:41;;;;;;;13.82;7.72;;;;;;;18.18;60.41;102260.25;5072345;28;20067;-57
2021/07/21 06:52:09;;;;;;;15.70;8.80;;;;;;;18.21;59.95;102251.41;5054152;28;20143;-58
2021/07/21 06:54:39;;;;;;;13.05;7.85;;;;;;;18.22;59.72;102269.59;5054532;28;20067;-52
2021/07/21 06:57:32;;;;;;;10.90;7.00;;;;;;;18.25;59.86;102277.31;5069057;28;20064;-55
2021/07/21 07:00:06;;;;;;;15.07;8.02;;;;;;;18.30;59.59;102269.03;5071994;28;20048;-56
2021/07/21 07:03:12;;;;;;;13.57;6.68;;;;;;;18.36;59.26;102271.75;5071634;28;20059;-57
2021/07/21 07:06:01;;;;;;;14.50;6.93;;;;;;;18.38;59.13;102275.06;5071873;28;20036;-53
2021/07/21 07:08:46;;;;;;;17.77;7.93;;;;;;;18.40;58.89;102268.13;5071765;28;20086;-55
2021/07/21 07:11:46;;;;;;;20.13;10.75;;;;;;;18.43;58.43;102272.25;5072097;28;20045;-55
2021/07/21 07:14:13;;;;;;;29.38;14.95;;;;;;;18.47;58.47;102270.56;5053774;28;20043;-58
2021/07/21 07:16:41;;;;;;;45.35;17.17;;;;;;;18.51;58.81;102277.16;5071638;28;20041;-59
2021/07/21 07:19:09;;;;;;;18.38;9.45;;;;;;;18.52;58.17;102276.06;5070751;28;20036;-53
2021/07/21 07:21:37;;;;;;;14.80;8.48;;;;;;;18.52;58.21;102274.13;5063643;28;20052;-56
2021/07/21 07:24:06;;;;;;;38.72;13.40;;;;;;;18.55;58.40;102275.47;5071486;28;20048;-57
2021/07/21 07:26:35;;;;;;;15.48;8.55;;;;;;;18.59;55.71;102276.56;5071928;28;20044;-56
2021/07/21 07:29:03;;;;;;;16.83;8.38;;;;;;;18.67;56.18;102273.19;5071788;28;20045;-56
2021/07/21 07:31:31;;;;;;;14.88;8.18;;;;;;;18.74;55.70;102278.38;5071700;28;20396;-55
2021/07/21 07:33:58;;;;;;;18.15;9.02;;;;;;;18.79;56.22;102291.38;5071198;28;20052;-53
2021/07/21 07:36:26;;;;;;;15.82;9.60;;;;;;;18.83;55.43;102286.91;5071571;28;20102;-54
2021/07/21 07:38:54;;;;;;;14.40;8.27;;;;;;;18.86;55.74;102287.16;5071879;28;20037;-56
2021/07/21 07:41:21;;;;;;;16.52;7.63;;;;;;;18.91;56.04;102287.13;5069905;28;20058;-54
2021/07/21 07:43:52;;;;;;;14.82;7.50;;;;;;;18.92;54.63;102287.94;5071939;28;20108;-57
2021/07/21 07:46:24;;;;;;;13.43;7.00;;;;;;;18.92;53.80;102285.16;5071138;28;20419;-54
2021/07/21 07:48:53;;;;;;;15.32;7.95;;;;;;;18.92;54.09;102280.47;5071625;28;20418;-58
2021/07/21 07:51:25;;;;;;;25.80;10.07;;;;;;;18.98;56.53;102289.56;5071301;28;20055;-58
2021/07/21 07:53:52;;;;;;;14.23;7.50;;;;;;;19.00;53.72;102290.09;5071521;28;20471;-57
2021/07/21 07:56:20;;;;;;;14.82;7.03;;;;;;;19.03;52.86;102288.69;5071592;28;20044;-57
2021/07/21 07:58:48;;;;;;;14.32;7.53;;;;;;;19.09;53.49;102284.75;5071346;28;20064;-57
2021/07/21 08:01:15;;;;;;;17.98;8.50;;;;;;;19.15;54.74;102289.94;5071291;28;20048;-56
2021/07/21 08:03:43;;;;;;;20.20;8.55;;;;;;;19.22;53.78;102288.78;5052937;28;20398;-57
2021/07/21 08:06:10;;;;;;;12.95;7.40;;;;;;;19.28;53.39;102285.66;5071737;28;20568;-56
2021/07/21 08:08:38;;;;;;;13.57;7.05;;;;;;;19.33;53.64;102296.66;5071498;28;20087;-54
2021/07/21 08:11:06;;;;;;;12.45;6.72;;;;;;;19.31;53.49;102285.13;5071439;28;20494;-56
2021/07/21 08:13:33;;;;;;;13.13;7.47;;;;;;;19.32;52.83;102286.75;5053608;28;20123;-58
2021/07/21 08:16:02;;;;;;;12.65;6.53;;;;;;;19.34;53.62;102287.28;5071088;28;20048;-55
2021/07/21 08:18:29;;;;;;;12.48;6.82;;;;;;;19.36;52.95;102290.59;5070763;28;20076;-57
2021/07/21 08:20:57;;;;;;;15.35;7.22;;;;;;;19.40;53.66;102290.81;5053365;28;20388;-56
2021/07/21 08:23:24;;;;;;;14.70;7.18;;;;;;;19.42;52.86;102291.34;5071442;28;20044;-54
2021/07/21 08:25:52;;;;;;;11.93;7.13;;;;;;;19.46;52.13;102295.19;5071075;28;20490;-57
2021/07/21 08:28:20;;;;;;;15.85;8.10;;;;;;;19.52;52.98;102288.47;5071600;28;20051;-57
2021/07/21 08:30:48;;;;;;;13.80;7.97;;;;;;;19.55;52.38;102293.44;5074710;28;20047;-56
2021/07/21 08:33:15;;;;;;;12.25;7.88;;;;;;;19.55;52.69;102287.91;5074486;28;20068;-55
2021/07/21 08:35:44;;;;;;;18.35;9.98;;;;;;;19.54;53.17;102294.53;5074683;28;20047;-57
2021/07/21 08:38:12;;;;;;;15.60;9.27;;;;;;;19.57;52.82;102291.16;5074730;28;20048;-54
2021/07/21 08:40:48;;;;;;;15.95;9.10;;;;;;;19.63;53.92;102285.63;5074534;28;20422;-58
2021/07/21 08:43:28;;;;;;;15.52;8.70;;;;;;;19.68;53.93;102293.88;5058436;28;20067;-56
2021/07/21 08:45:57;;;;;;;14.32;7.57;;;;;;;19.73;55.08;102304.88;5074435;28;20044;-56
2021/07/21 08:48:25;;;;;;;18.75;8.02;;;;;;;19.75;54.04;102297.94;5074099;28;20041;-54
2021/07/21 08:50:53;;;;;;;23.08;11.00;;;;;;;19.73;51.56;102300.16;5056670;28;20051;-58
2021/07/21 08:53:21;;;;;;;17.35;9.05;;;;;;;19.77;50.99;102290.16;5056473;28;20553;-56
2021/07/21 08:55:49;;;;;;;12.40;7.55;;;;;;;19.78;51.25;102289.03;5074349;28;20407;-59
2021/07/21 08:58:20;;;;;;;12.90;6.93;;;;;;;19.82;52.77;102292.06;5056342;28;20045;-58
2021/07/21 09:00:51;;;;;;;17.10;8.00;;;;;;;19.86;51.51;102283.97;5074288;28;20068;-59
2021/07/21 09:03:21;;;;;;;14.88;7.65;;;;;;;19.89;50.79;102281.47;5073953;28;20101;-59
2021/07/21 09:05:50;;;;;;;12.52;7.20;;;;;;;19.96;50.36;102284.69;5074355;28;20446;-58
2021/07/21 09:08:18;;;;;;;14.85;7.25;;;;;;;20.00;52.27;102288.50;5074206;28;20052;-59
2021/07/21 09:10:49;;;;;;;12.65;6.72;;;;;;;20.03;52.59;102286.25;5056536;28;20078;-59
2021/07/21 09:13:17;;;;;;;12.20;7.32;;;;;;;20.06;52.27;102288.41;5074392;28;20032;-59
2021/07/21 09:15:48;;;;;;;15.82;9.05;;;;;;;20.13;51.14;102291.66;5073550;28;20071;-56
2021/07/21 09:18:18;;;;;;;25.63;9.90;;;;;;;20.18;51.22;102286.88;5073567;28;20048;-56
2021/07/21 09:20:56;;;;;;;16.27;8.10;;;;;;;20.26;51.91;102287.34;5073757;28;20046;-56
2021/07/21 09:23:37;;;;;;;20.13;9.57;;;;;;;20.29;51.27;102289.50;5073799;28;20061;-58
2021/07/21 09:26:05;;;;;;;14.25;6.88;;;;;;;20.31;51.74;102293.63;5074118;28;20049;-58
2021/07/21 09:28:44;;;;;;;17.90;8.60;;;;;;;20.31;50.76;102295.56;5073804;28;20102;-57
2021/07/21 09:31:15;;;;;;;13.23;7.25;;;;;;;20.31;50.27;102293.63;5073274;28;20148;-58
2021/07/21 09:33:44;;;;;;;20.75;7.68;;;;;;;20.37;50.77;102291.59;5055897;28;20094;-54
2021/07/21 09:36:19;;;;;;;17.23;8.40;;;;;;;20.44;49.99;102297.59;5073305;28;20036;-59
2021/07/21 09:38:48;;;;;;;20.35;9.10;;;;;;;20.48;50.49;102292.28;5073811;28;20399;-56
2021/07/21 09:41:17;;;;;;;16.75;9.60;;;;;;;20.52;49.94;102293.34;5072371;28;20090;-58
2021/07/21 09:43:45;;;;;;;11.63;6.63;;;;;;;20.52;50.30;102298.88;5073467;28;20055;-58
2021/07/21 09:46:15;;;;;;;15.60;8.20;;;;;;;20.53;49.68;102295.78;5072523;28;20044;-55
2021/07/21 09:48:45;;;;;;;29.13;8.95;;;;;;;20.60;50.52;102289.91;5073645;28;20127;-56
2021/07/21 09:51:33;;;;;;;23.10;9.10;;;;;;;20.68;50.33;102291.19;5073284;28;20068;-58
2021/07/21 09:54:13;;;;;;;20.83;9.20;;;;;;;20.73;50.22;102300.22;5061775;28;20051;-57
2021/07/21 09:56:43;;;;;;;15.95;10.00;;;;;;;20.76;48.86;102298.81;5072795;28;20041;-57
2021/07/21 09:59:20;;;;;;;17.70;9.30;;;;;;;20.76;49.11;102288.56;5073139;28;20098;-57
2021/07/21 10:01:48;;;;;;;16.85;7.93;;;;;;;20.74;49.29;102282.50;5073015;28;20053;-57
2021/07/21 10:04:31;;;;;;;14.77;7.82;;;;;;;20.70;50.33;102288.94;5073290;28;20094;-56
2021/07/21 10:07:02;;;;;;;18.38;7.97;;;;;;;20.78;48.54;102285.47;5068829;28;20036;-58
2021/07/21 10:09:29;;;;;;;18.63;8.50;;;;;;;20.82;48.97;102273.47;5055138;28;20119;-57
2021/07/21 10:11:57;;;;;;;18.90;9.05;;;;;;;20.89;48.67;102280.59;5072811;28;20037;-55
2021/07/21 10:14:24;;;;;;;36.20;19.85;;;;;;;20.89;48.42;102288.91;5054679;28;20040;-58
2021/07/21 10:16:53;;;;;;;112.07;54.17;;;;;;;20.91;49.31;102273.63;5072433;28;20057;-57
2021/07/21 10:19:28;;;;;;;70.72;37.25;;;;;;;20.88;50.79;102284.47;5073017;28;20376;-55
2021/07/21 10:22:00;;;;;;;44.13;22.85;;;;;;;20.89;49.84;102278.66;5072657;28;20052;-55
2021/07/21 10:24:30;;;;;;;23.35;10.60;;;;;;;20.94;49.64;102278.56;5072554;28;20047;-58
2021/07/21 10:26:59;;;;;;;29.45;14.02;;;;;;;21.03;48.59;102273.16;5072833;28;20050;-56
2021/07/21 10:29:27;;;;;;;110.57;62.63;;;;;;;21.11;49.24;102271.63;5072186;28;20036;-57
2021/07/21 10:31:54;;;;;;;173.45;86.82;;;;;;;21.12;50.46;102273.25;5072535;28;20076;-58
2021/07/21 10:34:23;;;;;;;117.45;61.25;;;;;;;21.12;49.77;102267.72;5072025;28;20479;-58
2021/07/21 10:36:52;;;;;;;17.02;9.13;;;;;;;21.11;47.73;102260.53;5072618;28;20465;-57
2021/07/21 10:39:23;;;;;;;19.00;10.32;;;;;;;21.16;46.77;102272.34;5072450;28;20040;-58
2021/07/21 10:41:51;;;;;;;15.10;8.68;;;;;;;21.16;47.29;102264.03;5072396;28;20055;-56
2021/07/21 10:44:19;;;;;;;33.20;19.15;;;;;;;21.21;46.88;102265.91;5054096;28;20052;-54
2021/07/21 10:46:49;;;;;;;36.30;21.08;;;;;;;21.25;46.86;102262.22;5072168;28;20040;-58
2021/07/21 10:54:52;;;;;;;26.55;14.73;;;;;;;21.33;46.33;102268.19;5072433;28;20037;-54
2021/07/21 11:00:24;;;;;;;16.58;9.40;;;;;;;21.47;45.83;102271.81;5072245;28;20040;-57
2021/07/21 11:02:52;;;;;;;16.88;10.13;;;;;;;21.48;46.03;102273.47;5072020;28;20494;-53
2021/07/21 11:05:39;;;;;;;20.70;9.88;;;;;;;21.45;45.85;102272.16;5071861;28;20502;-57
2021/07/21 11:08:20;;;;;;;23.40;8.63;;;;;;;21.44;47.10;102264.13;5063324;28;20052;-55
2021/07/21 11:10:49;;;;;;;19.90;9.07;;;;;;;21.56;46.64;102269.97;5058526;28;20151;-58
2021/07/21 11:13:29;;;;;;;23.23;13.20;;;;;;;21.61;46.31;102267.09;5071494;28;20124;-54
2021/07/21 11:15:58;;;;;;;24.13;13.88;;;;;;;21.63;47.09;102266.81;5058747;28;20041;-57
2021/07/21 11:18:31;;;;;;;18.20;9.57;;;;;;;21.68;46.27;102259.19;5071740;28;20115;-55
2021/07/21 11:21:03;;;;;;;15.52;9.43;;;;;;;21.70;45.87;102265.25;5058046;28;20475;-56
2021/07/21 11:23:52;;;;;;;19.63;11.10;;;;;;;21.67;45.88;102265.88;5071829;28;20430;-55
2021/07/21 11:26:34;;;;;;;15.77;9.60;;;;;;;21.66;46.01;102257.84;5060039;28;20040;-55
2021/07/21 11:29:24;;;;;;;16.40;9.75;;;;;;;21.64;46.43;102260.13;5071775;28;20118;-54
2021/07/21 11:31:51;;;;;;;18.45;10.43;;;;;;;21.70;47.32;102262.47;5071842;28;20054;-57
2021/07/21 11:34:33;;;;;;;14.02;9.23;;;;;;;21.77;46.64;102255.69;5071513;28;20053;-57
2021/07/21 11:37:01;;;;;;;18.98;11.10;;;;;;;21.80;46.29;102264.22;5071852;28;20037;-55
2021/07/21 11:39:41;;;;;;;16.27;9.90;;;;;;;21.81;45.23;102256.72;5053410;28;20032;-56
2021/07/21 11:45:22;;;;;;;36.42;10.52;;;;;;;21.87;45.91;102261.03;5000108;28;20144;-51
2021/07/21 11:47:59;;;;;;;17.83;10.20;;;;;;;21.92;45.48;102258.97;5012839;28;20041;-57
2021/07/21 11:50:32;;;;;;;16.40;8.52;;;;;;;21.95;45.75;102254.75;5003933;28;20060;-57
2021/07/21 11:53:06;;;;;;;19.90;10.07;;;;;;;21.96;45.61;102253.63;5029303;28;20049;-53
2021/07/21 11:55:35;;;;;;;21.02;10.07;;;;;;;21.95;45.48;102265.84;5029237;28;20085;-53
2021/07/21 11:58:13;;;;;;;19.40;9.43;;;;;;;21.87;45.37;102255.50;5029608;28;20037;-58
2021/07/21 12:00:47;;;;;;;20.63;9.38;;;;;;;21.78;45.87;102246.25;5004347;28;20041;-55
2021/07/21 12:03:20;;;;;;;23.73;13.65;;;;;;;21.75;46.66;102247.69;5029350;28;20037;-53